CheckWX is a tool to help pilots better visualize weather data.  It is not intended as a substitute for an official pre-flight weather briefing.

18:03:41 UTC

ESSL METAR
Linköping City Airport
Linköping, Sweden
Current

14 mins ago

ESSL 211750Z AUTO 15003KT 110V190 9999 FEW057/// BKN100/// 19/17 Q1012
Observed
Jul-21 @ 17:50 UTC
Wind
  • 150° at 3 KTS
Visibility
10,000+ meters
Flight Rules
VFR
Cloud Levels
  • Few at 5,700' AGL
  • Broken at 10,000' AGL
Temperature
19°C / 66°F
Dewpoint
17°C / 63°F
Humidity
88%
Altimeter
29.88" Hg
Pressure
1011.92 hPa
Previous

44 mins ago

ESSL 211720Z AUTO 15004KT 9999 SCT100/// 19/17 Q1012
Observed
Jul-21 @ 17:20 UTC
Wind
  • 150° at 4 KTS
Visibility
10,000+ meters
Flight Rules
VFR
Cloud Levels
  • Scattered at 10,000' AGL
Temperature
19°C / 66°F
Dewpoint
17°C / 63°F
Humidity
88%
Altimeter
29.88" Hg
Pressure
1011.92 hPa
Previous

1 hour ago

ESSL 211650Z AUTO 14005KT 110V180 9999 BKN110/// 19/16 Q1012
Observed
Jul-21 @ 16:50 UTC
Wind
  • 140° at 5 KTS
Visibility
10,000+ meters
Flight Rules
VFR
Cloud Levels
  • Broken at 11,000' AGL
Temperature
19°C / 66°F
Dewpoint
16°C / 61°F
Humidity
83%
Altimeter
29.88" Hg
Pressure
1011.92 hPa